Time;durP1;ratioP1;P1;durP2;ratioP2;P2;SDS_P1;SDS_P2;PMS_P1;PMS_P2;Temp;Humidity;BMP_temperature;BMP_pressure;BME280_temperature;BME280_humidity;BME280_pressure;Samples;Min_cycle;Max_cycle;Signal;HPM_P1;HPM_P2
2021/04/21 00:01:05;;;;;;;11.17;8.93;;;;;;;9.48;70.01;99819.81;1705663;82;21141;-42
2021/04/21 00:03:34;;;;;;;11.60;9.10;;;;;;;9.48;70.04;99823.80;1709085;82;21539;-43
2021/04/21 00:06:03;;;;;;;9.88;8.53;;;;;;;9.48;70.00;99823.80;1679512;82;21547;-41
2021/04/21 00:08:30;;;;;;;9.35;8.38;;;;;;;9.47;69.95;99826.92;1710303;82;21177;-43
2021/04/21 00:10:59;;;;;;;10.95;8.35;;;;;;;9.47;69.89;99821.59;1686786;82;21170;-43
2021/04/21 00:13:28;;;;;;;10.38;7.87;;;;;;;9.47;69.90;99829.58;1713703;82;21153;-43
2021/04/21 00:15:56;;;;;;;11.60;8.65;;;;;;;9.47;69.90;99825.59;1711790;82;21153;-43
2021/04/21 00:18:24;;;;;;;9.25;8.25;;;;;;;9.48;69.99;99831.78;1715264;82;21161;-44
2021/04/21 00:20:56;;;;;;;11.00;8.13;;;;;;;9.45;70.07;99829.30;1711363;82;21161;-45
2021/04/21 00:23:24;;;;;;;11.00;7.92;;;;;;;9.44;70.05;99838.25;1713282;82;21517;-43
2021/04/21 00:25:55;;;;;;;11.53;9.30;;;;;;;9.43;70.07;99828.56;1713994;82;21206;-43
2021/04/21 00:28:25;;;;;;;9.95;8.63;;;;;;;9.44;70.03;99839.09;1712732;82;22001;-42
2021/04/21 00:30:53;;;;;;;11.48;9.10;;;;;;;9.45;69.98;99834.63;1714687;82;21479;-42
2021/04/21 00:33:21;;;;;;;9.25;7.90;;;;;;;9.45;69.96;99835.95;1713206;82;21126;-41
2021/04/21 00:35:49;;;;;;;10.98;7.87;;;;;;;9.46;69.87;99839.02;1715285;82;21165;-41
2021/04/21 00:38:18;;;;;;;8.88;7.53;;;;;;;9.45;69.87;99838.16;1712182;82;21169;-42
2021/04/21 00:41:03;;;;;;;9.20;6.90;;;;;;;9.46;69.81;99843.84;1680889;84;21161;-42
2021/04/21 00:43:46;;;;;;;9.73;7.92;;;;;;;9.46;69.83;99833.69;1630245;86;21802;-42
2021/04/21 00:46:45;;;;;;;13.30;7.62;;;;;;;9.49;69.77;99836.14;1798662;78;23062;-45
2021/04/21 00:49:45;;;;;;;9.68;7.95;;;;;;;9.45;69.72;99843.48;1772435;79;21124;-42
2021/04/21 00:52:27;;;;;;;9.55;7.10;;;;;;;9.44;69.73;99841.76;1759574;79;21125;-44
2021/04/21 00:55:06;;;;;;;10.00;7.10;;;;;;;9.42;69.75;99839.66;1763808;79;21171;-44
2021/04/21 00:58:02;;;;;;;7.70;6.55;;;;;;;9.42;69.77;99843.66;1758828;80;21149;-44
2021/04/21 01:00:35;;;;;;;9.73;7.37;;;;;;;9.42;69.76;99844.98;1743192;80;21149;-43
2021/04/21 01:03:09;;;;;;;9.25;6.85;;;;;;;9.39;69.78;99841.67;1683497;83;21134;-42
2021/04/21 01:05:45;;;;;;;8.58;7.08;;;;;;;9.34;69.90;99840.63;1675376;83;21168;-44
2021/04/21 01:08:15;;;;;;;9.85;7.60;;;;;;;9.30;69.97;99842.65;1699817;82;21193;-43
2021/04/21 01:11:02;;;;;;;11.05;7.92;;;;;;;9.29;70.07;99846.72;1658951;83;21145;-44
2021/04/21 01:13:39;;;;;;;9.25;7.37;;;;;;;9.25;70.24;99847.41;1704962;83;21157;-43
2021/04/21 01:16:07;;;;;;;11.83;8.53;;;;;;;9.14;70.40;99843.22;1660399;83;21176;-43
2021/04/21 01:18:35;;;;;;;10.78;8.53;;;;;;;9.08;70.65;99839.63;1677641;83;21213;-44
2021/04/21 01:21:08;;;;;;;11.68;8.85;;;;;;;9.04;70.80;99838.09;1706586;83;21256;-43
2021/04/21 01:24:10;;;;;;;11.65;9.45;;;;;;;9.01;70.98;99841.80;1701585;82;21149;-43
2021/04/21 01:26:53;;;;;;;12.30;9.95;;;;;;;8.99;71.12;99833.05;1710346;82;21211;-44
2021/04/21 01:29:35;;;;;;;11.28;9.38;;;;;;;9.02;71.26;99841.31;1678660;83;21177;-44
2021/04/21 01:32:13;;;;;;;10.55;8.45;;;;;;;9.02;71.36;99834.67;1700877;82;21172;-44
2021/04/21 01:34:43;;;;;;;10.18;7.95;;;;;;;9.03;71.37;99845.70;1742222;80;21601;-44
2021/04/21 01:37:13;;;;;;;8.35;7.42;;;;;;;9.04;71.38;99843.41;1743755;80;21169;-42
2021/04/21 01:39:48;;;;;;;8.68;7.58;;;;;;;8.99;71.40;99839.70;1744027;80;21145;-43
2021/04/21 01:42:16;;;;;;;8.38;6.60;;;;;;;8.92;71.53;99845.49;1743014;80;21160;-42
2021/04/21 01:44:45;;;;;;;8.80;7.67;;;;;;;8.91;71.64;99843.80;1682678;81;21201;-40
2021/04/21 01:47:18;;;;;;;9.10;6.97;;;;;;;8.92;71.71;99848.16;1734379;81;22013;-42
2021/04/21 01:50:04;;;;;;;7.72;6.15;;;;;;;8.92;71.76;99846.83;1741106;80;21125;-42
2021/04/21 01:52:42;;;;;;;9.40;6.83;;;;;;;8.92;71.73;99860.12;1713968;81;21217;-41
2021/04/21 01:55:27;;;;;;;7.55;6.70;;;;;;;8.93;71.75;99869.34;1712934;82;21207;-41
2021/04/21 01:58:33;;;;;;;8.13;6.87;;;;;;;8.97;71.81;99864.68;1738909;80;21678;-41
2021/04/21 02:01:09;;;;;;;10.00;7.62;;;;;;;9.00;71.75;99860.53;1698917;81;21170;-42
2021/04/21 02:03:40;;;;;;;8.75;6.78;;;;;;;9.02;71.65;99867.46;1742860;80;21161;-42
2021/04/21 02:06:54;;;;;;;8.28;6.75;;;;;;;9.03;71.53;99866.50;1704306;80;21295;-42
2021/04/21 02:09:53;;;;;;;8.85;6.62;;;;;;;9.01;71.43;99865.73;1714758;81;21180;-41
2021/04/21 02:12:32;;;;;;;9.45;7.45;;;;;;;9.02;71.33;99864.80;1730019;81;21603;-44
2021/04/21 02:15:19;;;;;;;8.93;7.08;;;;;;;9.02;71.30;99869.23;1719227;81;21141;-44
2021/04/21 02:18:18;;;;;;;9.30;7.37;;;;;;;9.02;71.23;99863.92;1724138;81;21172;-44
2021/04/21 02:21:26;;;;;;;9.63;7.05;;;;;;;9.02;71.29;99868.80;1725878;81;21129;-44
2021/04/21 02:24:21;;;;;;;12.07;6.87;;;;;;;9.03;71.21;99872.30;1719439;81;21704;-46
2021/04/21 02:26:57;;;;;;;8.40;6.60;;;;;;;9.03;71.18;99872.30;1696742;83;21215;-44
2021/04/21 02:30:04;;;;;;;10.82;7.37;;;;;;;9.04;71.10;99867.34;1794295;78;23170;-42
2021/04/21 02:33:13;;;;;;;8.43;6.17;;;;;;;9.00;71.09;99877.81;1740971;79;21129;-43
2021/04/21 02:35:50;;;;;;;9.43;6.60;;;;;;;8.97;71.04;99880.19;1751154;79;21143;-44
2021/04/21 02:39:11;;;;;;;8.15;6.67;;;;;;;8.95;71.01;99883.41;1736197;80;21596;-42
2021/04/21 02:41:54;;;;;;;9.10;7.15;;;;;;;8.94;71.13;99873.70;1772827;80;21153;-43
2021/04/21 02:44:46;;;;;;;7.87;6.30;;;;;;;8.95;71.09;99881.23;1764815;80;21146;-42
2021/04/21 02:47:39;;;;;;;9.33;6.60;;;;;;;8.95;71.00;99885.22;1765398;80;21121;-42
2021/04/21 02:50:24;;;;;;;8.35;6.28;;;;;;;8.92;71.00;99881.39;1773534;79;21883;-47
2021/04/21 02:53:26;;;;;;;8.70;6.42;;;;;;;8.86;71.05;99878.64;1776319;80;21101;-43
2021/04/21 02:56:25;;;;;;;7.20;6.17;;;;;;;8.83;71.06;99884.16;1775102;79;21160;-40
2021/04/21 02:59:19;;;;;;;7.97;6.90;;;;;;;8.81;71.09;99889.55;1714099;81;21188;-45
2021/04/21 03:02:08;;;;;;;7.42;6.12;;;;;;;8.79;71.11;99886.13;1724386;81;21697;-44
2021/04/21 03:04:52;;;;;;;8.53;6.35;;;;;;;8.78;71.19;99892.88;1711723;81;21242;-45
2021/04/21 03:07:37;;;;;;;9.43;6.37;;;;;;;8.79;71.20;99895.42;1689138;83;21141;-46
2021/04/21 03:10:35;;;;;;;7.90;6.35;;;;;;;8.83;71.21;99894.79;1785408;78;23573;-44
2021/04/21 03:13:25;;;;;;;9.10;6.80;;;;;;;8.79;71.14;99901.23;1754304;80;21097;-44
2021/04/21 03:15:56;;;;;;;6.72;5.92;;;;;;;8.79;71.19;99905.22;1737730;81;21676;-41
2021/04/21 03:18:27;;;;;;;7.97;6.85;;;;;;;8.77;71.20;99901.78;1724077;81;21628;-43
2021/04/21 03:21:04;;;;;;;7.87;6.47;;;;;;;8.76;71.16;99909.39;1713941;81;21149;-42
2021/04/21 03:23:32;;;;;;;7.45;6.33;;;;;;;8.74;71.12;99907.30;1742298;80;21240;-43
2021/04/21 03:26:00;;;;;;;7.25;6.53;;;;;;;8.75;71.30;99911.68;1689686;81;21189;-43
2021/04/21 03:28:29;;;;;;;6.47;5.80;;;;;;;8.72;71.28;99902.09;1690019;83;21145;-42
2021/04/21 03:31:02;;;;;;;7.75;6.45;;;;;;;8.70;71.33;99909.30;1686062;84;21171;-38
2021/04/21 03:33:43;;;;;;;6.78;5.80;;;;;;;8.70;71.36;99918.59;1679222;84;21846;-45
2021/04/21 03:36:17;;;;;;;7.17;6.08;;;;;;;8.69;71.41;99922.66;1690232;83;21144;-41
2021/04/21 03:38:47;;;;;;;8.38;6.33;;;;;;;8.66;71.59;99929.02;1665343;83;21183;-43
2021/04/21 03:41:15;;;;;;;;;;;;;;;8.64;71.65;99926.47;1683189;83;21237;-39
2021/04/21 03:43:43;;;;;;;6.65;5.47;;;;;;;8.64;71.74;99933.56;1671679;84;20190;-45
2021/04/21 03:46:11;;;;;;;7.87;7.00;;;;;;;8.65;71.75;99937.95;1681438;83;21625;-44
2021/04/21 03:48:40;;;;;;;8.70;6.67;;;;;;;8.65;71.78;99940.13;1682096;83;21611;-46
2021/04/21 03:51:09;;;;;;;10.38;6.58;;;;;;;8.68;71.84;99941.75;1676504;83;21187;-47
2021/04/21 03:53:38;;;;;;;7.10;5.80;;;;;;;8.71;71.84;99944.70;1685473;83;21157;-49
2021/04/21 03:56:17;;;;;;;9.58;6.12;;;;;;;8.73;71.77;99939.67;1702822;82;22247;-43
2021/04/21 03:58:47;;;;;;;6.75;5.97;;;;;;;8.75;71.71;99940.92;1674618;84;21804;-58
2021/04/21 04:01:18;;;;;;;7.60;5.58;;;;;;;8.78;71.66;99944.72;1712844;81;22228;-52
2021/04/21 04:03:56;;;;;;;9.15;6.65;;;;;;;8.80;71.58;99950.81;1701842;81;21609;-40
2021/04/21 04:06:26;;;;;;;9.55;5.87;;;;;;;8.77;71.53;99953.17;1700761;81;21169;-44
2021/04/21 04:09:05;;;;;;;7.72;6.15;;;;;;;8.77;71.54;99954.51;1655187;84;21133;-43
2021/04/21 04:11:45;;;;;;;6.50;5.33;;;;;;;8.75;71.50;99954.22;1689909;83;21216;-42
2021/04/21 04:14:33;;;;;;;6.80;5.70;;;;;;;8.73;71.55;99962.27;1675461;84;21156;-43
2021/04/21 04:17:03;;;;;;;6.58;5.67;;;;;;;8.70;71.65;99962.94;1687792;84;21635;-42
2021/04/21 04:19:34;;;;;;;6.03;5.05;;;;;;;8.69;71.73;99966.05;1710343;82;21169;-43
2021/04/21 04:22:16;;;;;;;;;;;;;;;8.70;71.86;99966.92;1706929;83;21181;-42
2021/04/21 04:24:50;;;;;;;;;;;;;;;8.71;71.95;99972.13;1720567;82;20215;-42
2021/04/21 04:27:23;;;;;;;6.80;4.97;;;;;;;8.71;71.92;99973.46;1707652;82;20178;-42
2021/04/21 04:29:51;;;;;;;5.53;4.95;;;;;;;8.70;71.98;99973.56;1714065;82;21607;-42
2021/04/21 04:32:22;;;;;;;7.00;5.45;;;;;;;8.71;72.00;99981.44;1711594;82;21173;-45
2021/04/21 04:34:57;;;;;;;6.05;5.17;;;;;;;8.73;72.03;99981.36;1680464;83;22058;-45
2021/04/21 04:37:27;;;;;;;6.90;6.00;;;;;;;8.74;72.06;99982.58;1689530;84;21177;-42
2021/04/21 04:39:54;;;;;;;8.68;5.83;;;;;;;8.68;72.08;99983.43;1688185;83;21172;-43
2021/04/21 04:42:22;;;;;;;9.33;5.35;;;;;;;8.65;72.29;99984.47;1679931;83;21182;-42
2021/04/21 04:44:51;;;;;;;7.87;6.30;;;;;;;8.62;72.53;99990.81;1686062;83;21243;-40
2021/04/21 04:47:45;;;;;;;5.67;5.10;;;;;;;8.61;72.62;99992.22;1708519;82;21198;-43
2021/04/21 04:50:16;;;;;;;6.83;5.50;;;;;;;8.58;72.64;99990.59;1717841;82;21167;-39
2021/04/21 04:52:47;;;;;;;6.53;5.28;;;;;;;8.60;72.71;100000.67;1703061;83;21150;-43
2021/04/21 04:55:17;;;;;;;6.47;5.47;;;;;;;8.60;72.86;99994.51;1698386;81;21466;-45
2021/04/21 04:57:47;;;;;;;;;;;;;;;8.58;72.90;100002.56;1705315;82;21406;-42
2021/04/21 05:00:17;;;;;;;6.60;5.08;;;;;;;8.59;72.99;100000.30;1685963;82;20176;-41
2021/04/21 05:02:56;;;;;;;7.30;5.30;;;;;;;8.60;72.96;100003.33;1690753;83;21186;-44
2021/04/21 05:05:23;;;;;;;9.25;5.72;;;;;;;8.60;72.99;100003.81;1677631;84;21209;-41
2021/04/21 05:08:02;;;;;;;7.45;5.95;;;;;;;8.62;73.07;100009.42;1682521;83;21169;-42
2021/04/21 05:10:58;;;;;;;6.75;5.85;;;;;;;8.61;73.16;100006.84;1690235;83;22018;-42
2021/04/21 05:13:26;;;;;;;8.35;5.65;;;;;;;8.62;73.16;100007.24;1679183;83;21240;-42
2021/04/21 05:16:09;;;;;;;6.70;6.00;;;;;;;8.64;73.23;100006.66;1676105;83;21686;-42
2021/04/21 05:18:57;;;;;;;6.83;5.53;;;;;;;8.70;73.32;100009.45;1689186;83;21614;-42
2021/04/21 05:21:50;;;;;;;8.43;5.95;;;;;;;8.76;73.22;100003.77;1681066;84;21209;-42
2021/04/21 05:24:56;;;;;;;8.73;5.78;;;;;;;8.81;73.09;100005.20;1681971;84;21240;-43
2021/04/21 05:27:41;;;;;;;6.83;5.25;;;;;;;8.85;72.96;100002.77;1683989;84;21175;-42
2021/04/21 05:30:32;;;;;;;7.92;6.22;;;;;;;8.92;72.84;100003.27;1672150;83;21167;-43
2021/04/21 05:33:38;;;;;;;;;;;;;;;9.01;72.77;100000.04;1714382;82;21198;-40
2021/04/21 05:36:39;;;;;;;6.92;5.78;;;;;;;9.06;72.65;100005.09;1695687;81;20165;-43
2021/04/21 05:39:35;;;;;;;7.33;6.08;;;;;;;9.10;72.35;100011.95;1699673;82;21122;-41
2021/04/21 05:42:48;;;;;;;6.53;5.67;;;;;;;9.14;72.40;100016.13;1684294;84;21180;-39
2021/04/21 05:45:59;;;;;;;8.40;5.97;;;;;;;9.15;72.31;100031.60;1682448;83;21172;-38
2021/04/21 05:48:59;;;;;;;7.33;6.37;;;;;;;9.08;72.72;100035.12;1690148;83;21197;-40
2021/04/21 05:51:50;;;;;;;8.53;7.17;;;;;;;9.06;72.64;100038.34;1714214;82;21173;-41
2021/04/21 05:55:07;;;;;;;8.53;7.30;;;;;;;9.09;72.84;100045.66;1700911;82;21181;-44
2021/04/21 05:58:12;;;;;;;9.38;7.40;;;;;;;9.11;72.66;100049.56;1689702;83;21165;-41
2021/04/21 06:01:28;;;;;;;8.23;7.05;;;;;;;9.09;72.10;100052.78;1699718;82;21209;-42
2021/04/21 06:04:46;;;;;;;8.28;7.10;;;;;;;9.05;72.19;100049.94;1681986;83;21137;-44
2021/04/21 06:07:15;;;;;;;8.48;6.58;;;;;;;9.10;71.80;100050.52;1720539;80;21324;-43
2021/04/21 06:09:43;;;;;;;9.48;6.70;;;;;;;9.11;71.97;100046.91;1723240;81;21304;-46
2021/04/21 06:12:16;;;;;;;8.08;6.80;;;;;;;9.19;71.75;100052.62;1720548;81;21174;-40
2021/04/21 06:14:45;;;;;;;8.00;6.25;;;;;;;9.25;71.10;100052.27;1670314;83;21332;-42
2021/04/21 06:17:12;;;;;;;7.97;6.05;;;;;;;9.30;71.14;100056.84;1725139;81;21202;-44
2021/04/21 06:19:44;;;;;;;7.53;5.67;;;;;;;9.34;71.23;100055.32;1690510;82;21508;-44
2021/04/21 06:22:12;;;;;;;7.45;6.17;;;;;;;9.40;70.86;100056.27;1694352;81;21190;-46
2021/04/21 06:24:41;;;;;;;8.03;5.70;;;;;;;9.45;70.72;100056.40;1712948;81;21153;-42
2021/04/21 06:27:12;;;;;;;10.10;6.15;;;;;;;9.50;70.51;100062.30;1678916;84;21764;-43
2021/04/21 06:29:40;;;;;;;8.73;6.78;;;;;;;9.51;69.97;100061.81;1720142;81;21187;-42
2021/04/21 06:32:15;;;;;;;7.30;5.67;;;;;;;9.50;69.59;100054.80;1720292;82;21844;-44
2021/04/21 06:34:44;;;;;;;8.40;6.80;;;;;;;9.46;69.83;100059.43;1709257;81;21211;-43
2021/04/21 06:37:12;;;;;;;7.97;6.65;;;;;;;9.49;69.78;100061.05;1707962;82;21706;-46
2021/04/21 06:39:40;;;;;;;7.65;6.25;;;;;;;9.51;69.45;100067.14;1718053;80;21213;-43
2021/04/21 06:42:08;;;;;;;6.35;5.65;;;;;;;9.52;69.43;100058.19;1722749;81;21181;-42
2021/04/21 06:44:47;;;;;;;7.00;6.17;;;;;;;9.58;69.30;100064.97;1719899;81;21177;-45
2021/04/21 06:47:26;;;;;;;7.17;6.47;;;;;;;9.60;69.04;100074.58;1729134;81;21142;-43
2021/04/21 06:50:01;;;;;;;8.38;6.70;;;;;;;9.62;69.07;100067.81;1707032;81;21344;-41
2021/04/21 06:52:37;;;;;;;8.43;6.20;;;;;;;9.59;69.41;100070.19;1683075;82;21613;-43
2021/04/21 06:55:14;;;;;;;7.67;6.55;;;;;;;9.62;69.40;100066.48;1725558;81;21188;-47
2021/04/21 06:57:43;;;;;;;8.70;5.75;;;;;;;9.67;69.31;100078.55;1723794;81;21277;-42
2021/04/21 07:00:19;;;;;;;6.90;5.50;;;;;;;9.71;69.00;100081.42;1726661;81;21182;-44
2021/04/21 07:02:53;;;;;;;7.83;6.65;;;;;;;9.77;68.32;100073.53;1715010;81;21185;-45
2021/04/21 07:05:36;;;;;;;6.97;5.80;;;;;;;9.82;67.91;100076.77;1727464;81;21166;-42
2021/04/21 07:08:14;;;;;;;8.15;5.72;;;;;;;9.85;67.42;100081.92;1709266;81;21191;-42
2021/04/21 07:10:56;;;;;;;7.22;5.75;;;;;;;9.87;66.90;100081.81;1719901;81;21153;-39
2021/04/21 07:13:30;;;;;;;7.95;5.87;;;;;;;9.85;67.05;100077.05;1711781;81;21161;-41
2021/04/21 07:16:03;;;;;;;6.95;5.95;;;;;;;9.88;67.51;100083.54;1708736;81;21174;-43
2021/04/21 07:18:36;;;;;;;6.45;5.80;;;;;;;9.91;67.57;100080.68;1719000;81;21122;-41
2021/04/21 07:21:07;;;;;;;7.42;6.62;;;;;;;9.96;67.49;100085.25;1709210;81;21146;-41
2021/04/21 07:23:37;;;;;;;7.42;6.33;;;;;;;10.03;67.60;100087.91;1713360;81;21578;-44
2021/04/21 07:26:05;;;;;;;6.17;4.72;;;;;;;10.10;67.37;100079.89;1702681;81;21165;-43
2021/04/21 07:28:36;;;;;;;7.22;6.40;;;;;;;10.18;66.75;100080.29;1711996;82;21197;-45
2021/04/21 07:31:17;;;;;;;5.85;5.25;;;;;;;10.25;66.25;100081.22;1711128;81;21156;-43
2021/04/21 07:33:48;;;;;;;6.15;5.30;;;;;;;10.29;65.93;100086.78;1707996;81;21969;-44
2021/04/21 07:36:22;;;;;;;6.55;5.12;;;;;;;10.34;65.87;100089.52;1713543;81;21304;-40
2021/04/21 07:38:55;;;;;;;7.90;4.92;;;;;;;10.40;66.22;100087.78;1719294;81;21149;-45
2021/04/21 07:41:41;;;;;;;6.20;4.33;;;;;;;10.48;65.97;100097.98;1709773;81;21245;-43
2021/04/21 07:44:36;;;;;;;6.65;4.17;;;;;;;10.54;65.12;100101.58;1715521;81;22143;-44
2021/04/21 07:47:09;;;;;;;7.20;4.45;;;;;;;10.54;63.67;100103.39;1685618;83;21146;-43
2021/04/21 07:49:48;;;;;;;7.35;3.83;;;;;;;10.54;63.78;100103.39;1721040;81;21670;-47
2021/04/21 07:52:30;;;;;;;5.17;3.98;;;;;;;10.56;63.34;100105.01;1693230;81;21571;-46
2021/04/21 07:55:16;;;;;;;5.75;4.10;;;;;;;10.58;63.17;100112.44;1719313;81;21174;-43
2021/04/21 07:57:57;;;;;;;7.87;3.98;;;;;;;10.58;61.99;100111.11;1723641;81;21177;-46
2021/04/21 08:00:28;;;;;;;6.65;4.85;;;;;;;10.56;61.93;100111.67;1698837;82;21487;-41
2021/04/21 08:02:56;;;;;;;;;;;;;;;10.56;62.61;100113.01;1711057;81;21157;-44
2021/04/21 08:05:52;;;;;;;5.05;4.25;;;;;;;10.60;62.78;100118.50;1708877;82;20170;-46
2021/04/21 08:08:30;;;;;;;4.45;4.00;;;;;;;10.65;62.68;100121.36;1710767;82;21602;-44
2021/04/21 08:10:58;;;;;;;6.53;5.20;;;;;;;10.67;61.92;100119.45;1678241;83;21187;-42
2021/04/21 08:13:42;;;;;;;5.00;3.70;;;;;;;10.70;61.69;100120.59;1696874;83;21214;-39
2021/04/21 08:16:30;;;;;;;5.20;4.00;;;;;;;10.70;61.72;100116.58;1713905;81;21165;-43
2021/04/21 08:18:59;;;;;;;4.45;3.50;;;;;;;10.74;61.56;100125.63;1708563;82;21206;-45
2021/04/21 08:21:46;;;;;;;5.75;3.98;;;;;;;10.79;60.65;100123.52;1717814;81;21273;-45
2021/04/21 08:24:18;;;;;;;4.62;3.85;;;;;;;10.80;59.45;100127.88;1722095;81;21188;-45
2021/04/21 08:26:48;;;;;;;4.42;3.52;;;;;;;10.80;59.70;100123.03;1718654;81;22353;-45
2021/04/21 08:29:16;;;;;;;4.72;4.10;;;;;;;10.80;60.44;100121.70;1729712;80;21123;-44
2021/04/21 08:31:46;;;;;;;4.65;4.10;;;;;;;10.87;60.68;100123.02;1731217;82;21130;-45
2021/04/21 08:34:13;;;;;;;3.87;3.35;;;;;;;10.94;60.76;100125.67;1721633;81;21609;-45
2021/04/21 08:36:41;;;;;;;3.92;3.30;;;;;;;11.00;60.76;100127.06;1722694;81;21462;-45
2021/04/21 08:39:09;;;;;;;3.98;3.30;;;;;;;11.04;59.93;100122.77;1711037;82;21610;-45
2021/04/21 08:41:39;;;;;;;14.33;5.42;;;;;;;11.09;59.47;100129.59;1733541;81;21185;-44
2021/04/21 08:44:07;;;;;;;4.55;3.52;;;;;;;11.12;59.11;100132.09;1713995;82;21285;-45
2021/04/21 08:46:35;;;;;;;4.33;3.70;;;;;;;11.12;59.27;100128.93;1705159;81;21150;-44
2021/04/21 08:49:04;;;;;;;5.15;4.30;;;;;;;11.15;59.29;100135.87;1691669;82;21185;-45
2021/04/21 08:51:33;;;;;;;3.58;3.00;;;;;;;11.17;60.22;100149.50;1716632;81;21193;-45
2021/04/21 08:54:05;;;;;;;4.10;2.98;;;;;;;11.19;62.57;100161.41;1721648;81;21150;-44
2021/04/21 08:56:36;;;;;;;5.28;3.35;;;;;;;11.16;63.59;100161.14;1710158;81;21142;-44
2021/04/21 08:59:07;;;;;;;5.17;3.80;;;;;;;11.09;64.33;100156.28;1728283;81;21118;-47
2021/04/21 09:01:34;;;;;;;3.85;3.25;;;;;;;10.99;65.56;100146.23;1712547;81;21177;-40
2021/04/21 09:04:03;;;;;;;5.03;3.72;;;;;;;10.97;66.36;100137.95;1714627;81;21213;-40
2021/04/21 09:06:30;;;;;;;4.72;3.65;;;;;;;10.98;67.25;100137.83;1728216;81;21173;-43
2021/04/21 09:08:58;;;;;;;4.40;3.98;;;;;;;11.00;68.43;100141.26;1717764;82;21641;-44
2021/04/21 09:11:26;;;;;;;4.30;3.72;;;;;;;11.02;68.69;100138.50;1716354;81;21182;-41
2021/04/21 09:13:54;;;;;;;5.42;4.35;;;;;;;11.03;69.20;100139.71;1714436;81;21457;-43
2021/04/21 09:16:22;;;;;;;5.30;4.47;;;;;;;11.04;69.70;100144.11;1716957;81;21977;-43
2021/04/21 09:18:50;;;;;;;5.92;4.12;;;;;;;11.09;70.03;100142.94;1701907;82;21592;-44
2021/04/21 09:21:24;;;;;;;4.40;3.60;;;;;;;11.13;70.33;100143.97;1706629;82;21151;-44
2021/04/21 09:23:51;;;;;;;4.17;3.77;;;;;;;11.20;70.04;100145.77;1711243;81;21568;-44
2021/04/21 09:26:25;;;;;;;4.92;3.77;;;;;;;11.29;70.45;100136.28;1717806;81;21138;-42
2021/04/21 09:28:54;;;;;;;4.37;3.90;;;;;;;11.33;70.09;100137.31;1720893;81;21140;-43
2021/04/21 09:31:28;;;;;;;4.60;4.15;;;;;;;11.38;69.98;100140.53;1721848;81;21149;-42
2021/04/21 09:34:14;;;;;;;4.67;3.70;;;;;;;11.40;69.02;100139.95;1722256;81;21622;-44
2021/04/21 09:36:45;;;;;;;5.40;4.42;;;;;;;11.39;68.26;100136.03;1718555;81;22217;-43
2021/04/21 09:39:21;;;;;;;4.13;3.57;;;;;;;11.37;66.94;100129.97;1729214;81;21189;-42
2021/04/21 09:41:50;;;;;;;5.72;4.58;;;;;;;11.34;66.87;100135.03;1719240;81;21146;-42
2021/04/21 09:44:20;;;;;;;4.42;3.75;;;;;;;11.33;67.79;100141.31;1728949;81;21185;-42
2021/04/21 09:46:48;;;;;;;4.80;4.35;;;;;;;11.31;67.66;100139.22;1726113;81;21949;-42
2021/04/21 09:49:39;;;;;;;7.28;4.75;;;;;;;11.30;68.31;100142.02;1717132;81;21198;-42
2021/04/21 09:52:20;;;;;;;4.47;3.95;;;;;;;11.29;68.16;100147.84;1726434;81;21549;-42
2021/04/21 09:54:46;;;;;;;4.45;4.00;;;;;;;11.25;68.07;100140.98;1712591;81;21159;-44
2021/04/21 09:57:25;;;;;;;5.42;3.83;;;;;;;11.23;68.17;100142.41;1716683;81;21146;-43
2021/04/21 10:00:00;;;;;;;5.42;4.10;;;;;;;11.24;68.47;100146.80;1724376;81;21600;-43
2021/04/21 10:02:53;;;;;;;5.22;4.12;;;;;;;11.28;68.86;100137.25;1797682;77;23060;-40
2021/04/21 10:05:27;;;;;;;4.58;4.05;;;;;;;11.26;69.44;100138.22;1814078;77;21117;-45
2021/04/21 10:08:22;;;;;;;5.00;3.80;;;;;;;11.30;69.45;100141.53;1798624;77;22027;-46
2021/04/21 10:11:02;;;;;;;4.35;3.72;;;;;;;11.35;68.78;100139.41;1802881;77;21167;-44
2021/04/21 10:13:49;;;;;;;4.62;3.98;;;;;;;11.38;67.81;100143.20;1798033;78;21180;-44
2021/04/21 10:16:16;;;;;;;5.92;3.70;;;;;;;11.45;67.72;100145.83;1803677;77;21124;-44
2021/04/21 10:18:44;;;;;;;4.45;3.58;;;;;;;11.56;68.00;100143.77;1806405;77;21207;-44
2021/04/21 10:21:15;;;;;;;5.45;4.22;;;;;;;11.67;68.03;100140.39;1792488;77;21188;-43
2021/04/21 10:23:44;;;;;;;4.97;4.20;;;;;;;11.76;67.63;100139.73;1809969;77;21137;-45
2021/04/21 10:26:14;;;;;;;4.58;3.72;;;;;;;11.84;66.86;100143.21;1813168;78;21133;-44
2021/04/21 10:28:44;;;;;;;5.17;4.15;;;;;;;11.91;66.47;100141.38;1779968;78;21653;-46
2021/04/21 10:31:17;;;;;;;4.65;3.80;;;;;;;11.98;65.52;100141.81;1780040;79;21195;-45
2021/04/21 10:33:48;;;;;;;4.55;3.67;;;;;;;12.04;64.10;100144.54;1775041;78;21169;-45
2021/04/21 10:36:15;;;;;;;4.65;3.33;;;;;;;12.09;63.80;100143.73;1772168;78;21164;-44
2021/04/21 10:38:44;;;;;;;4.33;3.90;;;;;;;12.11;63.34;100143.16;1715009;81;21167;-47
2021/04/21 10:44:31;;;;;;;5.60;4.72;;;;;;;12.16;63.23;100148.18;1769776;78;28825;-46
2021/04/21 10:47:12;;;;;;;4.75;3.42;;;;;;;12.15;63.13;100153.16;1769303;79;21109;-46
2021/04/21 10:50:06;;;;;;;5.20;3.90;;;;;;;12.16;62.48;100154.38;1765470;80;21125;-44
2021/04/21 10:52:41;;;;;;;5.05;2.62;;;;;;;12.13;61.35;100160.79;1771698;79;21176;-42
2021/04/21 10:55:18;;;;;;;3.08;2.17;;;;;;;12.03;59.74;100161.06;1762896;79;21174;-45
2021/04/21 10:58:00;;;;;;;5.05;2.37;;;;;;;11.95;59.93;100154.55;1751086;80;21144;-44
2021/04/21 11:00:29;;;;;;;3.25;2.25;;;;;;;11.95;60.10;100154.06;1771085;79;21166;-45
2021/04/21 11:03:10;;;;;;;3.12;2.42;;;;;;;12.00;59.66;100151.92;1756931;79;21163;-47
2021/04/21 11:05:41;;;;;;;3.35;2.20;;;;;;;12.12;59.63;100150.23;1734880;81;21196;-44
2021/04/21 11:08:20;;;;;;;2.80;1.95;;;;;;;12.24;58.97;100143.98;1705786;82;21644;-44
2021/04/21 11:10:54;;;;;;;4.33;2.30;;;;;;;12.33;58.13;100141.16;1699498;83;21213;-43
2021/04/21 11:13:42;;;;;;;3.22;2.10;;;;;;;12.42;57.07;100144.98;1697460;82;21188;-43
2021/04/21 11:16:31;;;;;;;3.65;2.05;;;;;;;12.49;56.21;100133.73;1720628;81;21710;-44
2021/04/21 11:19:25;;;;;;;2.75;2.15;;;;;;;12.58;56.87;100138.92;1712626;82;21165;-45
2021/04/21 11:22:19;;;;;;;3.10;2.27;;;;;;;12.67;55.77;100132.89;1749818;81;21561;-44
2021/04/21 11:25:23;;;;;;;3.08;2.50;;;;;;;12.77;56.48;100134.41;1721386;81;21157;-45
2021/04/21 11:27:51;;;;;;;2.77;1.90;;;;;;;12.87;55.82;100143.97;1630566;86;21192;-43
2021/04/21 11:30:42;;;;;;;2.70;2.00;;;;;;;12.92;55.80;100149.83;1625108;86;21166;-44
2021/04/21 11:33:09;;;;;;;2.22;1.65;;;;;;;12.96;55.20;100152.17;1667039;84;21154;-43
2021/04/21 11:35:44;;;;;;;3.30;2.35;;;;;;;13.06;54.58;100142.98;1798227;78;23104;-42
2021/04/21 11:38:42;;;;;;;3.22;2.42;;;;;;;13.05;54.34;100155.98;1747757;80;21137;-44
2021/04/21 11:41:19;;;;;;;2.55;1.92;;;;;;;13.08;54.51;100154.45;1775659;79;21156;-46
2021/04/21 11:43:47;;;;;;;3.12;2.27;;;;;;;13.13;54.85;100162.98;1772444;79;21141;-43
2021/04/21 11:46:39;;;;;;;3.35;2.20;;;;;;;13.17;54.19;100161.77;1770390;79;21139;-46
2021/04/21 11:49:07;;;;;;;3.80;2.65;;;;;;;13.20;54.66;100148.18;1753689;79;21169;-45
2021/04/21 11:51:45;;;;;;;4.05;2.50;;;;;;;13.29;54.65;100148.48;1776493;79;21150;-44
2021/04/21 11:54:13;;;;;;;3.30;2.50;;;;;;;13.36;54.96;100152.41;1771911;79;21145;-42
2021/04/21 11:56:40;;;;;;;4.65;2.98;;;;;;;13.45;55.57;100153.53;1742300;81;21141;-44
2021/04/21 11:59:08;;;;;;;3.45;2.42;;;;;;;13.50;55.76;100152.70;1723413;81;21184;-43
2021/04/21 12:01:36;;;;;;;2.47;2.22;;;;;;;13.52;55.98;100165.00;1716480;81;21153;-44
2021/04/21 12:04:11;;;;;;;3.75;2.30;;;;;;;13.55;55.75;100157.22;1689209;82;21173;-41
2021/04/21 12:06:40;;;;;;;2.95;2.00;;;;;;;13.57;56.27;100153.95;1717993;81;21150;-44
2021/04/21 12:09:07;;;;;;;2.10;1.90;;;;;;;13.62;55.80;100155.30;1721779;81;21121;-45
2021/04/21 12:11:36;;;;;;;2.75;2.20;;;;;;;13.64;55.81;100150.69;1725449;82;21179;-43
2021/04/21 12:14:04;;;;;;;4.42;2.60;;;;;;;13.69;55.68;100155.70;1700955;81;21906;-44
2021/04/21 12:16:33;;;;;;;2.62;2.02;;;;;;;13.72;55.72;100151.44;1723116;82;21668;-47
2021/04/21 12:19:01;;;;;;;4.90;2.98;;;;;;;13.76;55.25;100143.54;1700768;81;21184;-44
2021/04/21 12:21:36;;;;;;;3.42;2.33;;;;;;;13.78;54.96;100142.94;1723130;82;21565;-44
2021/04/21 12:24:08;;;;;;;3.17;2.20;;;;;;;13.80;55.09;100141.46;1721824;81;21176;-44
2021/04/21 12:26:42;;;;;;;2.98;2.08;;;;;;;13.83;55.08;100142.56;1743492;80;21213;-44